sensor_id;sensor_type;location;lat;lon;timestamp;P1;durP1;ratioP1;P2;durP2;ratioP2
31402;SDS011;18039;52.188;21.024;2022-07-04T00:01:48;13.93;;;10.20;;
31402;SDS011;18039;52.188;21.024;2022-07-04T00:04:15;13.20;;;10.38;;
31402;SDS011;18039;52.188;21.024;2022-07-04T00:06:42;13.68;;;10.15;;
31402;SDS011;18039;52.188;21.024;2022-07-04T00:09:09;15.43;;;9.13;;
31402;SDS011;18039;52.188;21.024;2022-07-04T00:11:36;13.65;;;10.18;;
31402;SDS011;18039;52.188;21.024;2022-07-04T00:14:03;11.32;;;9.48;;
31402;SDS011;18039;52.188;21.024;2022-07-04T00:16:30;15.15;;;10.25;;
31402;SDS011;18039;52.188;21.024;2022-07-04T00:18:57;18.58;;;10.60;;
31402;SDS011;18039;52.188;21.024;2022-07-04T00:21:24;12.73;;;10.23;;
31402;SDS011;18039;52.188;21.024;2022-07-04T00:23:51;16.05;;;10.82;;
31402;SDS011;18039;52.188;21.024;2022-07-04T00:26:18;14.85;;;10.90;;
31402;SDS011;18039;52.188;21.024;2022-07-04T00:28:46;15.38;;;10.80;;
31402;SDS011;18039;52.188;21.024;2022-07-04T00:31:13;17.67;;;10.68;;
31402;SDS011;18039;52.188;21.024;2022-07-04T00:33:40;20.40;;;10.93;;
31402;SDS011;18039;52.188;21.024;2022-07-04T00:36:07;12.45;;;10.35;;
31402;SDS011;18039;52.188;21.024;2022-07-04T00:38:35;13.23;;;11.60;;
31402;SDS011;18039;52.188;21.024;2022-07-04T00:41:02;13.88;;;10.23;;
31402;SDS011;18039;52.188;21.024;2022-07-04T00:43:30;14.50;;;11.55;;
31402;SDS011;18039;52.188;21.024;2022-07-04T00:46:15;20.60;;;10.88;;
31402;SDS011;18039;52.188;21.024;2022-07-04T00:48:43;14.63;;;11.50;;
31402;SDS011;18039;52.188;21.024;2022-07-04T00:51:09;12.88;;;10.32;;
31402;SDS011;18039;52.188;21.024;2022-07-04T00:53:37;15.55;;;10.30;;
31402;SDS011;18039;52.188;21.024;2022-07-04T00:56:04;13.45;;;10.52;;
31402;SDS011;18039;52.188;21.024;2022-07-04T00:58:31;14.88;;;10.85;;
31402;SDS011;18039;52.188;21.024;2022-07-04T01:00:58;13.77;;;10.35;;
31402;SDS011;18039;52.188;21.024;2022-07-04T01:03:25;18.85;;;10.35;;
31402;SDS011;18039;52.188;21.024;2022-07-04T01:05:52;14.20;;;9.88;;
31402;SDS011;18039;52.188;21.024;2022-07-04T01:08:20;15.38;;;10.25;;
31402;SDS011;18039;52.188;21.024;2022-07-04T01:10:47;14.40;;;11.00;;
31402;SDS011;18039;52.188;21.024;2022-07-04T01:13:20;11.75;;;9.85;;
31402;SDS011;18039;52.188;21.024;2022-07-04T01:15:49;14.15;;;10.43;;
31402;SDS011;18039;52.188;21.024;2022-07-04T01:18:17;14.70;;;10.95;;
31402;SDS011;18039;52.188;21.024;2022-07-04T01:20:44;14.07;;;10.60;;
31402;SDS011;18039;52.188;21.024;2022-07-04T01:23:11;13.10;;;10.02;;
31402;SDS011;18039;52.188;21.024;2022-07-04T01:25:38;14.20;;;10.95;;
31402;SDS011;18039;52.188;21.024;2022-07-04T01:28:05;14.45;;;10.90;;
31402;SDS011;18039;52.188;21.024;2022-07-04T01:30:34;12.63;;;10.10;;
31402;SDS011;18039;52.188;21.024;2022-07-04T01:33:02;14.60;;;9.82;;
31402;SDS011;18039;52.188;21.024;2022-07-04T01:35:30;15.93;;;10.13;;
31402;SDS011;18039;52.188;21.024;2022-07-04T01:37:57;13.82;;;10.93;;
31402;SDS011;18039;52.188;21.024;2022-07-04T01:40:24;13.63;;;10.57;;
31402;SDS011;18039;52.188;21.024;2022-07-04T01:42:51;12.27;;;9.43;;
31402;SDS011;18039;52.188;21.024;2022-07-04T01:45:19;11.63;;;9.60;;
31402;SDS011;18039;52.188;21.024;2022-07-04T01:47:45;13.82;;;9.85;;
31402;SDS011;18039;52.188;21.024;2022-07-04T01:50:12;15.57;;;10.52;;
31402;SDS011;18039;52.188;21.024;2022-07-04T01:52:40;13.85;;;10.60;;
31402;SDS011;18039;52.188;21.024;2022-07-04T01:55:08;16.05;;;10.88;;
31402;SDS011;18039;52.188;21.024;2022-07-04T01:57:36;12.50;;;10.45;;
31402;SDS011;18039;52.188;21.024;2022-07-04T02:00:05;13.63;;;10.65;;
31402;SDS011;18039;52.188;21.024;2022-07-04T02:02:52;16.90;;;11.45;;
31402;SDS011;18039;52.188;21.024;2022-07-04T02:05:20;13.63;;;11.27;;
31402;SDS011;18039;52.188;21.024;2022-07-04T02:07:48;16.55;;;11.15;;
31402;SDS011;18039;52.188;21.024;2022-07-04T02:10:16;13.52;;;10.50;;
31402;SDS011;18039;52.188;21.024;2022-07-04T02:12:44;12.85;;;10.07;;
31402;SDS011;18039;52.188;21.024;2022-07-04T02:15:31;13.05;;;9.57;;
31402;SDS011;18039;52.188;21.024;2022-07-04T02:17:59;14.38;;;10.73;;
31402;SDS011;18039;52.188;21.024;2022-07-04T02:20:26;17.33;;;11.27;;
31402;SDS011;18039;52.188;21.024;2022-07-04T02:22:54;15.65;;;11.38;;
31402;SDS011;18039;52.188;21.024;2022-07-04T02:25:21;15.25;;;11.52;;
31402;SDS011;18039;52.188;21.024;2022-07-04T02:27:53;15.82;;;11.77;;
31402;SDS011;18039;52.188;21.024;2022-07-04T02:30:20;15.35;;;11.80;;
31402;SDS011;18039;52.188;21.024;2022-07-04T02:32:48;19.80;;;12.18;;
31402;SDS011;18039;52.188;21.024;2022-07-04T02:35:15;14.32;;;11.60;;
31402;SDS011;18039;52.188;21.024;2022-07-04T02:37:42;16.63;;;13.23;;
31402;SDS011;18039;52.188;21.024;2022-07-04T02:40:09;20.95;;;14.00;;
31402;SDS011;18039;52.188;21.024;2022-07-04T02:42:37;16.98;;;13.18;;
31402;SDS011;18039;52.188;21.024;2022-07-04T02:45:05;17.42;;;13.30;;
31402;SDS011;18039;52.188;21.024;2022-07-04T02:47:33;18.08;;;14.35;;
31402;SDS011;18039;52.188;21.024;2022-07-04T02:50:01;19.65;;;15.07;;
31402;SDS011;18039;52.188;21.024;2022-07-04T02:52:29;19.83;;;15.60;;
31402;SDS011;18039;52.188;21.024;2022-07-04T02:54:57;18.73;;;14.48;;
31402;SDS011;18039;52.188;21.024;2022-07-04T02:57:24;19.23;;;14.70;;
31402;SDS011;18039;52.188;21.024;2022-07-04T02:59:51;22.60;;;15.50;;
31402;SDS011;18039;52.188;21.024;2022-07-04T03:02:19;21.27;;;15.30;;
31402;SDS011;18039;52.188;21.024;2022-07-04T03:04:46;23.48;;;16.02;;
31402;SDS011;18039;52.188;21.024;2022-07-04T03:07:13;23.20;;;17.25;;
31402;SDS011;18039;52.188;21.024;2022-07-04T03:09:40;23.50;;;16.75;;
31402;SDS011;18039;52.188;21.024;2022-07-04T03:12:07;22.85;;;15.82;;
31402;SDS011;18039;52.188;21.024;2022-07-04T03:14:35;23.13;;;16.02;;
31402;SDS011;18039;52.188;21.024;2022-07-04T03:17:02;21.85;;;15.65;;
31402;SDS011;18039;52.188;21.024;2022-07-04T03:19:29;21.55;;;16.70;;
31402;SDS011;18039;52.188;21.024;2022-07-04T03:21:55;20.27;;;15.82;;
31402;SDS011;18039;52.188;21.024;2022-07-04T03:24:23;21.63;;;14.57;;
31402;SDS011;18039;52.188;21.024;2022-07-04T03:26:49;24.70;;;14.98;;
31402;SDS011;18039;52.188;21.024;2022-07-04T03:29:16;21.13;;;15.40;;
31402;SDS011;18039;52.188;21.024;2022-07-04T03:31:43;20.65;;;15.50;;
31402;SDS011;18039;52.188;21.024;2022-07-04T03:34:10;21.08;;;15.40;;
31402;SDS011;18039;52.188;21.024;2022-07-04T03:36:38;19.63;;;14.80;;
31402;SDS011;18039;52.188;21.024;2022-07-04T03:39:05;19.52;;;13.98;;
31402;SDS011;18039;52.188;21.024;2022-07-04T03:41:31;20.95;;;14.52;;
31402;SDS011;18039;52.188;21.024;2022-07-04T03:43:58;21.75;;;14.85;;
31402;SDS011;18039;52.188;21.024;2022-07-04T03:46:25;22.65;;;15.32;;
31402;SDS011;18039;52.188;21.024;2022-07-04T03:48:52;19.45;;;14.60;;
31402;SDS011;18039;52.188;21.024;2022-07-04T03:51:20;16.98;;;13.10;;
31402;SDS011;18039;52.188;21.024;2022-07-04T03:53:47;18.88;;;13.57;;
31402;SDS011;18039;52.188;21.024;2022-07-04T03:56:14;17.35;;;13.55;;
31402;SDS011;18039;52.188;21.024;2022-07-04T03:58:41;16.45;;;12.68;;
31402;SDS011;18039;52.188;21.024;2022-07-04T04:01:16;14.85;;;11.35;;
31402;SDS011;18039;52.188;21.024;2022-07-04T04:03:44;15.88;;;11.57;;
31402;SDS011;18039;52.188;21.024;2022-07-04T04:06:30;16.48;;;12.20;;
31402;SDS011;18039;52.188;21.024;2022-07-04T04:08:57;15.18;;;11.65;;
31402;SDS011;18039;52.188;21.024;2022-07-04T04:11:24;13.85;;;11.32;;
31402;SDS011;18039;52.188;21.024;2022-07-04T04:13:51;13.55;;;10.75;;
31402;SDS011;18039;52.188;21.024;2022-07-04T04:16:18;14.75;;;10.75;;
31402;SDS011;18039;52.188;21.024;2022-07-04T04:18:45;16.25;;;10.90;;
31402;SDS011;18039;52.188;21.024;2022-07-04T04:21:12;13.43;;;10.38;;
31402;SDS011;18039;52.188;21.024;2022-07-04T04:23:39;14.75;;;10.30;;
31402;SDS011;18039;52.188;21.024;2022-07-04T04:26:06;14.68;;;9.65;;
31402;SDS011;18039;52.188;21.024;2022-07-04T04:28:33;13.57;;;9.73;;
31402;SDS011;18039;52.188;21.024;2022-07-04T04:31:00;13.65;;;10.13;;
31402;SDS011;18039;52.188;21.024;2022-07-04T04:33:27;12.60;;;10.02;;
31402;SDS011;18039;52.188;21.024;2022-07-04T04:35:54;13.50;;;9.65;;
31402;SDS011;18039;52.188;21.024;2022-07-04T04:38:21;11.57;;;9.20;;
31402;SDS011;18039;52.188;21.024;2022-07-04T04:40:48;10.90;;;9.55;;
31402;SDS011;18039;52.188;21.024;2022-07-04T04:43:15;12.10;;;8.88;;
31402;SDS011;18039;52.188;21.024;2022-07-04T04:45:43;13.98;;;9.48;;
31402;SDS011;18039;52.188;21.024;2022-07-04T04:48:10;11.25;;;9.18;;
31402;SDS011;18039;52.188;21.024;2022-07-04T04:50:38;12.98;;;8.98;;
31402;SDS011;18039;52.188;21.024;2022-07-04T04:53:05;16.65;;;8.75;;
31402;SDS011;18039;52.188;21.024;2022-07-04T04:55:32;11.07;;;9.05;;
31402;SDS011;18039;52.188;21.024;2022-07-04T04:57:59;12.02;;;8.30;;
31402;SDS011;18039;52.188;21.024;2022-07-04T05:00:26;11.80;;;8.63;;
31402;SDS011;18039;52.188;21.024;2022-07-04T05:02:53;16.42;;;8.48;;
31402;SDS011;18039;52.188;21.024;2022-07-04T05:05:20;13.05;;;8.88;;
31402;SDS011;18039;52.188;21.024;2022-07-04T05:07:47;12.05;;;7.03;;
31402;SDS011;18039;52.188;21.024;2022-07-04T05:10:15;11.93;;;8.20;;
31402;SDS011;18039;52.188;21.024;2022-07-04T05:12:42;12.48;;;8.63;;
31402;SDS011;18039;52.188;21.024;2022-07-04T05:15:09;10.85;;;8.05;;
31402;SDS011;18039;52.188;21.024;2022-07-04T05:17:37;10.02;;;7.57;;
31402;SDS011;18039;52.188;21.024;2022-07-04T05:20:04;10.15;;;7.20;;
31402;SDS011;18039;52.188;21.024;2022-07-04T05:22:31;13.13;;;7.30;;
31402;SDS011;18039;52.188;21.024;2022-07-04T05:24:58;9.40;;;6.72;;
31402;SDS011;18039;52.188;21.024;2022-07-04T05:27:26;9.82;;;6.68;;
31402;SDS011;18039;52.188;21.024;2022-07-04T05:29:53;8.07;;;6.20;;
31402;SDS011;18039;52.188;21.024;2022-07-04T05:32:20;9.05;;;6.47;;
31402;SDS011;18039;52.188;21.024;2022-07-04T05:34:48;12.55;;;7.13;;
31402;SDS011;18039;52.188;21.024;2022-07-04T05:37:15;10.80;;;7.15;;
31402;SDS011;18039;52.188;21.024;2022-07-04T05:39:42;9.10;;;6.30;;
31402;SDS011;18039;52.188;21.024;2022-07-04T05:42:09;10.05;;;6.55;;
31402;SDS011;18039;52.188;21.024;2022-07-04T05:44:35;12.20;;;6.53;;
31402;SDS011;18039;52.188;21.024;2022-07-04T05:47:03;14.73;;;7.25;;
31402;SDS011;18039;52.188;21.024;2022-07-04T05:49:30;11.32;;;7.18;;
31402;SDS011;18039;52.188;21.024;2022-07-04T05:51:57;11.20;;;8.65;;
31402;SDS011;18039;52.188;21.024;2022-07-04T05:54:24;13.95;;;9.68;;
31402;SDS011;18039;52.188;21.024;2022-07-04T05:56:51;14.95;;;8.00;;
31402;SDS011;18039;52.188;21.024;2022-07-04T05:59:18;11.38;;;7.40;;
31402;SDS011;18039;52.188;21.024;2022-07-04T06:01:45;15.68;;;8.35;;
31402;SDS011;18039;52.188;21.024;2022-07-04T06:04:12;13.60;;;9.88;;
31402;SDS011;18039;52.188;21.024;2022-07-04T06:06:39;11.98;;;8.98;;
31402;SDS011;18039;52.188;21.024;2022-07-04T06:09:06;13.00;;;8.80;;
31402;SDS011;18039;52.188;21.024;2022-07-04T06:11:33;11.45;;;8.05;;
31402;SDS011;18039;52.188;21.024;2022-07-04T06:14:01;12.02;;;7.93;;
31402;SDS011;18039;52.188;21.024;2022-07-04T06:16:28;13.27;;;7.70;;
31402;SDS011;18039;52.188;21.024;2022-07-04T06:18:55;10.07;;;7.32;;
31402;SDS011;18039;52.188;21.024;2022-07-04T06:21:22;11.88;;;7.20;;
31402;SDS011;18039;52.188;21.024;2022-07-04T06:23:49;22.38;;;6.78;;
31402;SDS011;18039;52.188;21.024;2022-07-04T06:26:16;7.20;;;5.05;;
31402;SDS011;18039;52.188;21.024;2022-07-04T06:28:43;7.05;;;5.70;;
31402;SDS011;18039;52.188;21.024;2022-07-04T06:31:13;8.75;;;6.57;;
31402;SDS011;18039;52.188;21.024;2022-07-04T06:33:41;8.40;;;4.30;;
31402;SDS011;18039;52.188;21.024;2022-07-04T06:36:27;8.68;;;5.43;;
31402;SDS011;18039;52.188;21.024;2022-07-04T06:38:55;6.18;;;4.20;;
31402;SDS011;18039;52.188;21.024;2022-07-04T06:41:23;6.75;;;4.50;;
31402;SDS011;18039;52.188;21.024;2022-07-04T06:43:49;10.05;;;4.57;;
31402;SDS011;18039;52.188;21.024;2022-07-04T06:46:17;8.15;;;4.63;;
31402;SDS011;18039;52.188;21.024;2022-07-04T06:48:44;5.53;;;4.55;;
31402;SDS011;18039;52.188;21.024;2022-07-04T06:51:11;10.65;;;4.95;;
31402;SDS011;18039;52.188;21.024;2022-07-04T06:53:38;11.43;;;5.20;;
31402;SDS011;18039;52.188;21.024;2022-07-04T06:56:07;7.97;;;5.03;;
31402;SDS011;18039;52.188;21.024;2022-07-04T06:58:34;5.82;;;3.60;;
31402;SDS011;18039;52.188;21.024;2022-07-04T07:01:01;3.95;;;2.92;;
31402;SDS011;18039;52.188;21.024;2022-07-04T07:03:28;5.55;;;2.70;;
31402;SDS011;18039;52.188;21.024;2022-07-04T07:05:55;6.28;;;3.40;;
31402;SDS011;18039;52.188;21.024;2022-07-04T07:08:27;4.05;;;3.00;;
31402;SDS011;18039;52.188;21.024;2022-07-04T07:10:55;8.73;;;4.00;;
31402;SDS011;18039;52.188;21.024;2022-07-04T07:13:23;4.25;;;3.53;;
31402;SDS011;18039;52.188;21.024;2022-07-04T07:15:50;6.20;;;3.63;;
31402;SDS011;18039;52.188;21.024;2022-07-04T07:18:17;7.22;;;3.50;;
31402;SDS011;18039;52.188;21.024;2022-07-04T07:20:44;7.18;;;3.30;;
31402;SDS011;18039;52.188;21.024;2022-07-04T07:23:11;6.65;;;3.55;;
31402;SDS011;18039;52.188;21.024;2022-07-04T07:25:38;6.40;;;3.65;;
31402;SDS011;18039;52.188;21.024;2022-07-04T07:28:05;4.57;;;3.60;;
31402;SDS011;18039;52.188;21.024;2022-07-04T07:30:32;4.95;;;3.35;;
31402;SDS011;18039;52.188;21.024;2022-07-04T07:32:59;11.30;;;3.72;;
31402;SDS011;18039;52.188;21.024;2022-07-04T07:35:26;5.13;;;3.10;;
31402;SDS011;18039;52.188;21.024;2022-07-04T07:37:53;6.30;;;3.67;;
31402;SDS011;18039;52.188;21.024;2022-07-04T07:40:20;6.82;;;3.28;;
31402;SDS011;18039;52.188;21.024;2022-07-04T07:42:48;5.85;;;3.70;;
31402;SDS011;18039;52.188;21.024;2022-07-04T07:45:15;8.35;;;3.13;;
31402;SDS011;18039;52.188;21.024;2022-07-04T07:47:42;3.55;;;2.63;;
31402;SDS011;18039;52.188;21.024;2022-07-04T07:50:09;3.63;;;2.90;;
31402;SDS011;18039;52.188;21.024;2022-07-04T07:52:36;4.18;;;3.40;;
31402;SDS011;18039;52.188;21.024;2022-07-04T07:55:03;11.90;;;3.45;;
31402;SDS011;18039;52.188;21.024;2022-07-04T07:57:31;7.55;;;3.38;;
31402;SDS011;18039;52.188;21.024;2022-07-04T07:59:58;5.32;;;3.30;;
31402;SDS011;18039;52.188;21.024;2022-07-04T08:02:25;5.60;;;3.35;;
31402;SDS011;18039;52.188;21.024;2022-07-04T08:05:11;5.78;;;3.17;;
31402;SDS011;18039;52.188;21.024;2022-07-04T08:07:39;3.80;;;2.90;;
31402;SDS011;18039;52.188;21.024;2022-07-04T08:10:06;6.82;;;2.90;;
31402;SDS011;18039;52.188;21.024;2022-07-04T08:12:34;5.65;;;4.25;;
31402;SDS011;18039;52.188;21.024;2022-07-04T08:15:01;3.60;;;2.70;;
31402;SDS011;18039;52.188;21.024;2022-07-04T08:17:33;5.63;;;2.95;;
31402;SDS011;18039;52.188;21.024;2022-07-04T08:20:04;7.55;;;3.50;;
31402;SDS011;18039;52.188;21.024;2022-07-04T08:22:32;7.03;;;3.03;;
31402;SDS011;18039;52.188;21.024;2022-07-04T08:24:59;4.55;;;3.45;;
31402;SDS011;18039;52.188;21.024;2022-07-04T08:27:27;4.72;;;3.03;;
31402;SDS011;18039;52.188;21.024;2022-07-04T08:29:59;5.50;;;3.00;;
31402;SDS011;18039;52.188;21.024;2022-07-04T08:32:27;6.68;;;3.38;;
31402;SDS011;18039;52.188;21.024;2022-07-04T08:34:54;5.05;;;3.42;;
31402;SDS011;18039;52.188;21.024;2022-07-04T08:37:24;5.00;;;3.63;;
31402;SDS011;18039;52.188;21.024;2022-07-04T08:39:51;6.85;;;3.22;;
31402;SDS011;18039;52.188;21.024;2022-07-04T08:42:18;8.38;;;3.65;;
31402;SDS011;18039;52.188;21.024;2022-07-04T08:44:48;5.15;;;3.63;;
31402;SDS011;18039;52.188;21.024;2022-07-04T08:47:19;4.45;;;2.72;;
31402;SDS011;18039;52.188;21.024;2022-07-04T08:52:40;7.03;;;2.72;;
31402;SDS011;18039;52.188;21.024;2022-07-04T08:55:09;5.63;;;3.13;;
31402;SDS011;18039;52.188;21.024;2022-07-04T08:57:56;6.43;;;4.82;;
31402;SDS011;18039;52.188;21.024;2022-07-04T09:00:42;5.47;;;3.03;;
31402;SDS011;18039;52.188;21.024;2022-07-04T09:03:10;5.50;;;2.50;;
31402;SDS011;18039;52.188;21.024;2022-07-04T09:05:37;4.88;;;2.60;;
31402;SDS011;18039;52.188;21.024;2022-07-04T09:08:05;2.92;;;2.22;;
31402;SDS011;18039;52.188;21.024;2022-07-04T09:10:32;2.88;;;2.13;;
31402;SDS011;18039;52.188;21.024;2022-07-04T09:13:00;4.43;;;2.30;;
31402;SDS011;18039;52.188;21.024;2022-07-04T09:15:40;3.80;;;2.03;;
31402;SDS011;18039;52.188;21.024;2022-07-04T09:20:54;4.28;;;1.95;;
31402;SDS011;18039;52.188;21.024;2022-07-04T09:23:24;3.88;;;1.90;;
31402;SDS011;18039;52.188;21.024;2022-07-04T09:28:35;6.97;;;2.53;;
31402;SDS011;18039;52.188;21.024;2022-07-04T09:31:22;3.40;;;2.00;;
31402;SDS011;18039;52.188;21.024;2022-07-04T09:33:55;2.85;;;2.00;;
31402;SDS011;18039;52.188;21.024;2022-07-04T09:36:35;3.42;;;2.10;;
31402;SDS011;18039;52.188;21.024;2022-07-04T09:42:01;3.13;;;2.30;;
31402;SDS011;18039;52.188;21.024;2022-07-04T09:44:43;3.40;;;2.10;;
31402;SDS011;18039;52.188;21.024;2022-07-04T09:47:19;3.40;;;2.28;;
31402;SDS011;18039;52.188;21.024;2022-07-04T09:50:02;4.22;;;1.83;;
31402;SDS011;18039;52.188;21.024;2022-07-04T09:52:52;4.68;;;2.20;;
31402;SDS011;18039;52.188;21.024;2022-07-04T09:55:30;3.30;;;1.85;;
31402;SDS011;18039;52.188;21.024;2022-07-04T09:58:02;3.45;;;2.03;;
31402;SDS011;18039;52.188;21.024;2022-07-04T10:00:35;5.28;;;1.90;;
31402;SDS011;18039;52.188;21.024;2022-07-04T10:03:18;3.23;;;1.90;;
31402;SDS011;18039;52.188;21.024;2022-07-04T10:08:39;7.00;;;2.25;;
31402;SDS011;18039;52.188;21.024;2022-07-04T10:11:07;3.42;;;2.03;;
31402;SDS011;18039;52.188;21.024;2022-07-04T10:13:37;3.45;;;1.65;;
31402;SDS011;18039;52.188;21.024;2022-07-04T10:16:05;3.03;;;1.70;;
31402;SDS011;18039;52.188;21.024;2022-07-04T10:18:35;1.77;;;1.40;;
31402;SDS011;18039;52.188;21.024;2022-07-04T10:21:02;3.40;;;2.03;;
31402;SDS011;18039;52.188;21.024;2022-07-04T10:23:30;2.38;;;1.90;;
31402;SDS011;18039;52.188;21.024;2022-07-04T10:26:00;2.65;;;2.03;;
31402;SDS011;18039;52.188;21.024;2022-07-04T10:28:28;5.28;;;2.35;;
31402;SDS011;18039;52.188;21.024;2022-07-04T10:30:56;4.32;;;1.98;;
31402;SDS011;18039;52.188;21.024;2022-07-04T10:33:25;4.18;;;1.80;;
31402;SDS011;18039;52.188;21.024;2022-07-04T10:35:55;4.60;;;2.15;;
31402;SDS011;18039;52.188;21.024;2022-07-04T10:38:50;3.97;;;1.98;;
31402;SDS011;18039;52.188;21.024;2022-07-04T10:41:23;4.32;;;1.95;;
31402;SDS011;18039;52.188;21.024;2022-07-04T10:43:51;8.23;;;1.70;;
31402;SDS011;18039;52.188;21.024;2022-07-04T10:46:24;3.80;;;1.70;;
31402;SDS011;18039;52.188;21.024;2022-07-04T10:48:52;2.80;;;1.80;;
31402;SDS011;18039;52.188;21.024;2022-07-04T11:20:26;5.15;;;2.28;;
31402;SDS011;18039;52.188;21.024;2022-07-04T11:23:17;2.28;;;1.75;;
31402;SDS011;18039;52.188;21.024;2022-07-04T11:25:44;3.80;;;2.00;;
31402;SDS011;18039;52.188;21.024;2022-07-04T11:31:10;2.78;;;2.10;;
31402;SDS011;18039;52.188;21.024;2022-07-04T11:33:38;2.67;;;2.00;;
31402;SDS011;18039;52.188;21.024;2022-07-04T11:36:13;2.03;;;1.60;;
31402;SDS011;18039;52.188;21.024;2022-07-04T11:38:44;1.95;;;1.50;;
31402;SDS011;18039;52.188;21.024;2022-07-04T11:41:16;5.30;;;2.10;;
31402;SDS011;18039;52.188;21.024;2022-07-04T11:44:03;3.55;;;2.08;;
31402;SDS011;18039;52.188;21.024;2022-07-04T11:46:50;4.22;;;1.77;;
31402;SDS011;18039;52.188;21.024;2022-07-04T11:49:17;3.15;;;2.00;;
31402;SDS011;18039;52.188;21.024;2022-07-04T11:51:46;4.35;;;1.80;;
31402;SDS011;18039;52.188;21.024;2022-07-04T11:54:14;2.78;;;1.85;;
31402;SDS011;18039;52.188;21.024;2022-07-04T11:57:09;2.42;;;1.70;;
31402;SDS011;18039;52.188;21.024;2022-07-04T11:59:36;8.15;;;2.03;;
31402;SDS011;18039;52.188;21.024;2022-07-04T12:02:14;3.20;;;2.00;;
31402;SDS011;18039;52.188;21.024;2022-07-04T12:04:43;10.45;;;2.60;;
31402;SDS011;18039;52.188;21.024;2022-07-04T12:07:11;4.07;;;2.80;;
31402;SDS011;18039;52.188;21.024;2022-07-04T12:09:39;5.85;;;1.73;;
31402;SDS011;18039;52.188;21.024;2022-07-04T12:12:08;3.38;;;1.80;;
31402;SDS011;18039;52.188;21.024;2022-07-04T12:14:36;4.13;;;1.80;;
31402;SDS011;18039;52.188;21.024;2022-07-04T12:19:55;3.00;;;1.75;;
31402;SDS011;18039;52.188;21.024;2022-07-04T12:22:26;9.02;;;2.00;;
31402;SDS011;18039;52.188;21.024;2022-07-04T12:25:27;6.22;;;1.90;;
31402;SDS011;18039;52.188;21.024;2022-07-04T12:27:58;2.90;;;1.83;;
31402;SDS011;18039;52.188;21.024;2022-07-04T12:30:28;4.80;;;1.95;;
31402;SDS011;18039;52.188;21.024;2022-07-04T12:32:58;5.18;;;1.70;;
31402;SDS011;18039;52.188;21.024;2022-07-04T12:38:14;2.33;;;1.83;;
31402;SDS011;18039;52.188;21.024;2022-07-04T12:43:25;3.83;;;1.58;;
31402;SDS011;18039;52.188;21.024;2022-07-04T12:45:54;2.80;;;1.88;;
31402;SDS011;18039;52.188;21.024;2022-07-04T12:48:28;4.38;;;1.85;;
31402;SDS011;18039;52.188;21.024;2022-07-04T12:51:10;3.78;;;1.88;;
31402;SDS011;18039;52.188;21.024;2022-07-04T12:53:44;3.97;;;1.73;;
31402;SDS011;18039;52.188;21.024;2022-07-04T12:58:56;7.63;;;2.17;;
31402;SDS011;18039;52.188;21.024;2022-07-04T13:01:28;3.20;;;1.80;;
31402;SDS011;18039;52.188;21.024;2022-07-04T13:03:55;6.70;;;2.85;;
31402;SDS011;18039;52.188;21.024;2022-07-04T13:06:23;3.65;;;1.85;;
31402;SDS011;18039;52.188;21.024;2022-07-04T13:08:51;2.90;;;1.75;;
31402;SDS011;18039;52.188;21.024;2022-07-04T13:11:20;2.92;;;1.80;;
31402;SDS011;18039;52.188;21.024;2022-07-04T13:14:06;6.45;;;2.13;;
31402;SDS011;18039;52.188;21.024;2022-07-04T13:16:34;10.57;;;9.48;;
31402;SDS011;18039;52.188;21.024;2022-07-04T13:19:06;2.70;;;2.45;;
31402;SDS011;18039;52.188;21.024;2022-07-04T13:21:33;4.93;;;2.20;;
31402;SDS011;18039;52.188;21.024;2022-07-04T13:24:00;4.57;;;1.90;;
31402;SDS011;18039;52.188;21.024;2022-07-04T13:26:27;3.25;;;2.08;;
31402;SDS011;18039;52.188;21.024;2022-07-04T13:28:57;4.07;;;2.30;;
31402;SDS011;18039;52.188;21.024;2022-07-04T13:31:24;2.45;;;1.95;;
31402;SDS011;18039;52.188;21.024;2022-07-04T13:33:53;4.40;;;2.38;;
31402;SDS011;18039;52.188;21.024;2022-07-04T13:36:21;4.18;;;1.95;;
31402;SDS011;18039;52.188;21.024;2022-07-04T13:38:48;6.00;;;2.15;;
31402;SDS011;18039;52.188;21.024;2022-07-04T13:44:00;2.33;;;1.83;;
31402;SDS011;18039;52.188;21.024;2022-07-04T13:46:28;4.13;;;2.08;;
31402;SDS011;18039;52.188;21.024;2022-07-04T13:48:56;3.50;;;2.10;;
31402;SDS011;18039;52.188;21.024;2022-07-04T13:51:23;4.78;;;2.03;;
31402;SDS011;18039;52.188;21.024;2022-07-04T13:53:50;7.53;;;2.28;;
31402;SDS011;18039;52.188;21.024;2022-07-04T13:56:18;3.53;;;2.40;;
31402;SDS011;18039;52.188;21.024;2022-07-04T13:58:45;7.20;;;2.78;;
31402;SDS011;18039;52.188;21.024;2022-07-04T14:01:13;2.53;;;2.03;;
31402;SDS011;18039;52.188;21.024;2022-07-04T14:03:42;4.72;;;2.30;;
31402;SDS011;18039;52.188;21.024;2022-07-04T14:06:09;3.30;;;1.58;;
31402;SDS011;18039;52.188;21.024;2022-07-04T14:08:36;3.67;;;2.42;;
31402;SDS011;18039;52.188;21.024;2022-07-04T14:11:03;4.57;;;2.17;;
31402;SDS011;18039;52.188;21.024;2022-07-04T14:13:30;7.57;;;2.10;;
31402;SDS011;18039;52.188;21.024;2022-07-04T14:15:57;9.63;;;2.38;;
31402;SDS011;18039;52.188;21.024;2022-07-04T14:18:25;4.32;;;2.20;;
31402;SDS011;18039;52.188;21.024;2022-07-04T14:20:52;4.38;;;1.90;;
31402;SDS011;18039;52.188;21.024;2022-07-04T14:23:19;3.38;;;2.13;;
31402;SDS011;18039;52.188;21.024;2022-07-04T14:26:08;4.55;;;2.10;;
31402;SDS011;18039;52.188;21.024;2022-07-04T14:28:37;3.83;;;2.17;;
31402;SDS011;18039;52.188;21.024;2022-07-04T14:31:04;3.47;;;2.22;;
31402;SDS011;18039;52.188;21.024;2022-07-04T14:33:32;5.53;;;2.30;;
31402;SDS011;18039;52.188;21.024;2022-07-04T14:36:00;2.15;;;1.95;;
31402;SDS011;18039;52.188;21.024;2022-07-04T14:38:28;3.65;;;2.30;;
31402;SDS011;18039;52.188;21.024;2022-07-04T14:40:55;4.60;;;1.98;;
31402;SDS011;18039;52.188;21.024;2022-07-04T14:43:22;3.05;;;2.00;;
31402;SDS011;18039;52.188;21.024;2022-07-04T14:45:49;5.82;;;2.17;;
31402;SDS011;18039;52.188;21.024;2022-07-04T14:48:16;2.17;;;1.80;;
31402;SDS011;18039;52.188;21.024;2022-07-04T14:50:43;4.20;;;2.40;;
31402;SDS011;18039;52.188;21.024;2022-07-04T14:53:10;4.05;;;1.83;;
31402;SDS011;18039;52.188;21.024;2022-07-04T14:55:37;5.78;;;1.75;;
31402;SDS011;18039;52.188;21.024;2022-07-04T14:58:04;2.85;;;1.70;;
31402;SDS011;18039;52.188;21.024;2022-07-04T15:00:31;3.80;;;1.65;;
31402;SDS011;18039;52.188;21.024;2022-07-04T15:02:58;8.63;;;1.73;;
31402;SDS011;18039;52.188;21.024;2022-07-04T15:05:26;3.40;;;1.50;;
31402;SDS011;18039;52.188;21.024;2022-07-04T15:07:53;2.30;;;1.45;;
31402;SDS011;18039;52.188;21.024;2022-07-04T15:10:22;6.72;;;2.67;;
31402;SDS011;18039;52.188;21.024;2022-07-04T15:13:10;14.18;;;2.25;;
31402;SDS011;18039;52.188;21.024;2022-07-04T15:15:37;11.73;;;1.77;;
31402;SDS011;18039;52.188;21.024;2022-07-04T15:18:10;2.55;;;1.67;;
31402;SDS011;18039;52.188;21.024;2022-07-04T15:20:37;2.95;;;2.22;;
31402;SDS011;18039;52.188;21.024;2022-07-04T15:23:24;3.95;;;2.33;;
31402;SDS011;18039;52.188;21.024;2022-07-04T15:26:09;4.80;;;2.22;;
31402;SDS011;18039;52.188;21.024;2022-07-04T15:28:36;9.73;;;2.67;;
31402;SDS011;18039;52.188;21.024;2022-07-04T15:31:03;2.20;;;1.95;;
31402;SDS011;18039;52.188;21.024;2022-07-04T15:33:30;4.68;;;2.25;;
31402;SDS011;18039;52.188;21.024;2022-07-04T15:35:57;17.33;;;2.88;;
31402;SDS011;18039;52.188;21.024;2022-07-04T15:38:25;4.25;;;2.47;;